sensor_id;sensor_type;location;lat;lon;timestamp;pressure;altitude;pressure_sealevel;temperature;humidity
64200;BME280;50516;52.272;5.136;2023-12-20T00:01:27;101514.66;;;7.33;100.00
64200;BME280;50516;52.272;5.136;2023-12-20T00:03:52;101512.06;;;7.38;100.00
64200;BME280;50516;52.272;5.136;2023-12-20T00:06:18;101511.97;;;7.45;100.00
64200;BME280;50516;52.272;5.136;2023-12-20T00:08:43;101515.03;;;7.37;100.00
64200;BME280;50516;52.272;5.136;2023-12-20T00:11:09;101510.97;;;7.39;100.00
64200;BME280;50516;52.272;5.136;2023-12-20T00:13:34;101505.91;;;7.43;100.00
64200;BME280;50516;52.272;5.136;2023-12-20T00:15:59;101501.63;;;7.47;99.68
64200;BME280;50516;52.272;5.136;2023-12-20T00:18:25;101496.38;;;7.45;99.34
64200;BME280;50516;52.272;5.136;2023-12-20T00:20:50;101508.25;;;7.39;99.47
64200;BME280;50516;52.272;5.136;2023-12-20T00:23:15;101507.25;;;7.22;99.82
64200;BME280;50516;52.272;5.136;2023-12-20T00:25:41;101514.06;;;7.31;99.59
64200;BME280;50516;52.272;5.136;2023-12-20T00:28:06;101507.31;;;7.45;99.27
64200;BME280;50516;52.272;5.136;2023-12-20T00:30:31;101507.44;;;7.39;98.61
64200;BME280;50516;52.272;5.136;2023-12-20T00:32:57;101506.44;;;7.33;99.00
64200;BME280;50516;52.272;5.136;2023-12-20T00:35:22;101504.34;;;7.35;98.88
64200;BME280;50516;52.272;5.136;2023-12-20T00:37:47;101514.28;;;7.29;99.01
64200;BME280;50516;52.272;5.136;2023-12-20T00:40:13;101500.72;;;7.23;98.81
64200;BME280;50516;52.272;5.136;2023-12-20T00:42:38;101500.72;;;7.23;99.11
64200;BME280;50516;52.272;5.136;2023-12-20T00:45:04;101496.66;;;7.13;99.11
64200;BME280;50516;52.272;5.136;2023-12-20T00:47:30;101506.41;;;7.09;99.26
64200;BME280;50516;52.272;5.136;2023-12-20T00:49:56;101509.84;;;7.05;99.69
64200;BME280;50516;52.272;5.136;2023-12-20T00:52:21;101502.69;;;7.04;99.89
64200;BME280;50516;52.272;5.136;2023-12-20T00:54:48;101494.16;;;7.00;100.00
64200;BME280;50516;52.272;5.136;2023-12-20T00:57:13;101491.31;;;7.07;100.00
64200;BME280;50516;52.272;5.136;2023-12-20T00:59:38;101494.91;;;7.07;99.90
64200;BME280;50516;52.272;5.136;2023-12-20T01:02:04;101489.19;;;7.09;99.41
64200;BME280;50516;52.272;5.136;2023-12-20T01:04:29;101489.19;;;7.09;99.55
64200;BME280;50516;52.272;5.136;2023-12-20T01:06:54;101488.47;;;7.13;100.00
64200;BME280;50516;52.272;5.136;2023-12-20T01:09:19;101489.81;;;7.23;100.00
64200;BME280;50516;52.272;5.136;2023-12-20T01:11:45;101505.16;;;7.24;100.00
64200;BME280;50516;52.272;5.136;2023-12-20T01:14:11;101499.91;;;7.22;99.19
64200;BME280;50516;52.272;5.136;2023-12-20T01:16:37;101495.63;;;7.26;100.00
64200;BME280;50516;52.272;5.136;2023-12-20T01:19:02;101500.97;;;7.33;100.00
64200;BME280;50516;52.272;5.136;2023-12-20T01:21:27;101504.22;;;7.30;100.00
64200;BME280;50516;52.272;5.136;2023-12-20T01:23:52;101496.50;;;7.27;100.00
64200;BME280;50516;52.272;5.136;2023-12-20T01:26:18;101502.88;;;7.21;100.00
64200;BME280;50516;52.272;5.136;2023-12-20T01:28:43;101491.13;;;7.20;100.00
64200;BME280;50516;52.272;5.136;2023-12-20T01:31:08;101489.22;;;7.21;100.00
64200;BME280;50516;52.272;5.136;2023-12-20T01:33:34;101487.66;;;7.13;100.00
64200;BME280;50516;52.272;5.136;2023-12-20T01:35:59;101486.38;;;7.16;100.00
64200;BME280;50516;52.272;5.136;2023-12-20T01:38:24;101494.81;;;7.26;100.00
64200;BME280;50516;52.272;5.136;2023-12-20T01:40:49;101493.53;;;7.28;100.00
64200;BME280;50516;52.272;5.136;2023-12-20T01:43:15;101483.88;;;7.26;100.00
64200;BME280;50516;52.272;5.136;2023-12-20T01:45:40;101478.28;;;7.21;100.00
64200;BME280;50516;52.272;5.136;2023-12-20T01:48:07;101482.94;;;7.32;100.00
64200;BME280;50516;52.272;5.136;2023-12-20T01:50:36;101485.81;;;7.37;100.00
64200;BME280;50516;52.272;5.136;2023-12-20T01:53:02;101479.94;;;7.22;100.00
64200;BME280;50516;52.272;5.136;2023-12-20T01:55:31;101478.53;;;7.31;100.00
64200;BME280;50516;52.272;5.136;2023-12-20T01:57:58;101481.41;;;7.36;100.00
64200;BME280;50516;52.272;5.136;2023-12-20T02:00:25;101479.63;;;7.30;100.00
64200;BME280;50516;52.272;5.136;2023-12-20T02:02:53;101471.78;;;7.45;100.00
64200;BME280;50516;52.272;5.136;2023-12-20T02:05:19;101491.97;;;7.44;100.00
64200;BME280;50516;52.272;5.136;2023-12-20T02:07:44;101482.94;;;7.32;100.00
64200;BME280;50516;52.272;5.136;2023-12-20T02:10:09;101485.16;;;7.23;100.00
64200;BME280;50516;52.272;5.136;2023-12-20T02:12:35;101486.03;;;7.24;100.00
64200;BME280;50516;52.272;5.136;2023-12-20T02:15:01;101482.66;;;7.22;100.00
64200;BME280;50516;52.272;5.136;2023-12-20T02:17:27;101473.41;;;7.11;100.00
64200;BME280;50516;52.272;5.136;2023-12-20T02:19:52;101473.44;;;6.92;100.00
64200;BME280;50516;52.272;5.136;2023-12-20T02:22:18;101466.59;;;7.02;100.00
64200;BME280;50516;52.272;5.136;2023-12-20T02:24:43;101470.16;;;7.02;100.00
64200;BME280;50516;52.272;5.136;2023-12-20T02:27:08;101476.25;;;7.16;100.00
64200;BME280;50516;52.272;5.136;2023-12-20T02:29:34;101463.81;;;7.20;100.00
64200;BME280;50516;52.272;5.136;2023-12-20T02:32:00;101464.34;;;7.10;100.00
64200;BME280;50516;52.272;5.136;2023-12-20T02:34:25;101459.19;;;7.21;100.00
64200;BME280;50516;52.272;5.136;2023-12-20T02:36:50;101457.97;;;7.17;100.00
64200;BME280;50516;52.272;5.136;2023-12-20T02:39:16;101460.09;;;7.15;100.00
64200;BME280;50516;52.272;5.136;2023-12-20T02:41:41;101461.03;;;7.08;100.00
64200;BME280;50516;52.272;5.136;2023-12-20T02:44:06;101464.09;;;7.00;100.00
64200;BME280;50516;52.272;5.136;2023-12-20T02:46:32;101472.53;;;6.99;100.00
64200;BME280;50516;52.272;5.136;2023-12-20T02:48:57;101464.94;;;7.01;100.00
64200;BME280;50516;52.272;5.136;2023-12-20T02:51:22;101461.72;;;6.92;100.00
64200;BME280;50516;52.272;5.136;2023-12-20T02:53:48;101457.69;;;6.94;100.00
64200;BME280;50516;52.272;5.136;2023-12-20T02:56:13;101452.13;;;7.01;100.00
64200;BME280;50516;52.272;5.136;2023-12-20T02:58:39;101452.94;;;7.02;100.00
64200;BME280;50516;52.272;5.136;2023-12-20T03:01:05;101452.72;;;7.03;100.00
64200;BME280;50516;52.272;5.136;2023-12-20T03:03:31;101437.63;;;7.01;100.00
64200;BME280;50516;52.272;5.136;2023-12-20T03:05:56;101434.06;;;7.00;100.00
64200;BME280;50516;52.272;5.136;2023-12-20T03:08:22;101439.66;;;7.05;100.00
64200;BME280;50516;52.272;5.136;2023-12-20T03:10:47;101446.91;;;7.11;100.00
64200;BME280;50516;52.272;5.136;2023-12-20T03:13:12;101439.25;;;7.20;100.00
64200;BME280;50516;52.272;5.136;2023-12-20T03:15:37;101425.94;;;7.24;100.00
64200;BME280;50516;52.272;5.136;2023-12-20T03:18:03;101417.63;;;7.19;100.00
64200;BME280;50516;52.272;5.136;2023-12-20T03:20:28;101426.28;;;7.16;100.00
64200;BME280;50516;52.272;5.136;2023-12-20T03:22:54;101425.06;;;7.11;100.00
64200;BME280;50516;52.272;5.136;2023-12-20T03:25:19;101430.31;;;7.13;100.00
64200;BME280;50516;52.272;5.136;2023-12-20T03:27:44;101434.09;;;7.12;100.00
64200;BME280;50516;52.272;5.136;2023-12-20T03:30:10;101434.53;;;6.97;100.00
64200;BME280;50516;52.272;5.136;2023-12-20T03:32:35;101424.47;;;6.98;100.00
64200;BME280;50516;52.272;5.136;2023-12-20T03:35:01;101429.44;;;7.01;100.00
64200;BME280;50516;52.272;5.136;2023-12-20T03:37:26;101430.88;;;7.03;100.00
64200;BME280;50516;52.272;5.136;2023-12-20T03:39:51;101435.06;;;7.06;100.00
64200;BME280;50516;52.272;5.136;2023-12-20T03:42:17;101432.69;;;7.09;100.00
64200;BME280;50516;52.272;5.136;2023-12-20T03:44:42;101436.81;;;7.12;100.00
64200;BME280;50516;52.272;5.136;2023-12-20T03:47:07;101447.38;;;7.08;100.00
64200;BME280;50516;52.272;5.136;2023-12-20T03:49:33;101446.44;;;7.03;100.00
64200;BME280;50516;52.272;5.136;2023-12-20T03:51:58;101455.22;;;7.05;100.00
64200;BME280;50516;52.272;5.136;2023-12-20T03:54:24;101451.66;;;7.04;100.00
64200;BME280;50516;52.272;5.136;2023-12-20T03:56:49;101443.25;;;7.06;100.00
64200;BME280;50516;52.272;5.136;2023-12-20T03:59:15;101442.06;;;7.13;100.00
64200;BME280;50516;52.272;5.136;2023-12-20T04:01:43;101439.94;;;7.16;100.00
64200;BME280;50516;52.272;5.136;2023-12-20T04:04:10;101434.09;;;7.12;100.00
64200;BME280;50516;52.272;5.136;2023-12-20T04:06:35;101437.31;;;7.21;100.00
64200;BME280;50516;52.272;5.136;2023-12-20T04:09:01;101425.59;;;7.20;100.00
64200;BME280;50516;52.272;5.136;2023-12-20T04:11:26;101435.53;;;7.26;100.00
64200;BME280;50516;52.272;5.136;2023-12-20T04:13:51;101425.31;;;7.22;100.00
64200;BME280;50516;52.272;5.136;2023-12-20T04:16:17;101436.41;;;7.27;100.00
64200;BME280;50516;52.272;5.136;2023-12-20T04:18:42;101429.50;;;7.36;100.00
64200;BME280;50516;52.272;5.136;2023-12-20T04:21:07;101423.91;;;7.31;100.00
64200;BME280;50516;52.272;5.136;2023-12-20T04:23:32;101415.94;;;7.29;100.00
64200;BME280;50516;52.272;5.136;2023-12-20T04:25:58;101415.25;;;7.34;100.00
64200;BME280;50516;52.272;5.136;2023-12-20T04:28:23;101419.88;;;7.34;100.00
64200;BME280;50516;52.272;5.136;2023-12-20T04:30:48;101419.53;;;7.30;100.00
64200;BME280;50516;52.272;5.136;2023-12-20T04:33:14;101419.41;;;7.37;100.00
64200;BME280;50516;52.272;5.136;2023-12-20T04:35:39;101417.38;;;7.44;100.00
64200;BME280;50516;52.272;5.136;2023-12-20T04:38:06;101417.16;;;7.45;100.00
64200;BME280;50516;52.272;5.136;2023-12-20T04:40:31;101412.63;;;7.39;100.00
64200;BME280;50516;52.272;5.136;2023-12-20T04:42:57;101397.09;;;7.40;100.00
64200;BME280;50516;52.272;5.136;2023-12-20T04:45:22;101405.53;;;7.38;100.00
64200;BME280;50516;52.272;5.136;2023-12-20T04:47:49;101405.41;;;7.45;100.00
64200;BME280;50516;52.272;5.136;2023-12-20T04:50:15;101408.94;;;7.45;100.00
64200;BME280;50516;52.272;5.136;2023-12-20T04:52:40;101397.09;;;7.40;100.00
64200;BME280;50516;52.272;5.136;2023-12-20T04:55:06;101397.78;;;7.35;100.00
64200;BME280;50516;52.272;5.136;2023-12-20T04:57:31;101402.56;;;7.40;100.00
64200;BME280;50516;52.272;5.136;2023-12-20T04:59:57;101400.28;;;7.48;100.00
64200;BME280;50516;52.272;5.136;2023-12-20T05:02:22;101391.97;;;7.43;100.00
64200;BME280;50516;52.272;5.136;2023-12-20T05:04:48;101397.06;;;7.52;100.00
64200;BME280;50516;52.272;5.136;2023-12-20T05:07:13;101399.00;;;7.51;100.00
64200;BME280;50516;52.272;5.136;2023-12-20T05:09:39;101399.09;;;7.44;100.00
64200;BME280;50516;52.272;5.136;2023-12-20T05:12:04;101405.53;;;7.38;100.00
64200;BME280;50516;52.272;5.136;2023-12-20T05:14:29;101401.94;;;7.38;100.00
64200;BME280;50516;52.272;5.136;2023-12-20T05:16:55;101400.88;;;7.39;100.00
64200;BME280;50516;52.272;5.136;2023-12-20T05:19:22;101406.47;;;7.44;100.00
64200;BME280;50516;52.272;5.136;2023-12-20T05:21:48;101408.84;;;7.40;100.00
64200;BME280;50516;52.272;5.136;2023-12-20T05:24:13;101410.50;;;7.41;100.00
64200;BME280;50516;52.272;5.136;2023-12-20T05:26:38;101409.06;;;7.39;100.00
64200;BME280;50516;52.272;5.136;2023-12-20T05:29:04;101402.91;;;7.43;100.00
64200;BME280;50516;52.272;5.136;2023-12-20T05:31:29;101400.75;;;7.45;100.00
64200;BME280;50516;52.272;5.136;2023-12-20T05:33:54;101398.84;;;7.58;100.00
64200;BME280;50516;52.272;5.136;2023-12-20T05:36:19;101392.06;;;7.60;100.00
64200;BME280;50516;52.272;5.136;2023-12-20T05:38:45;101394.81;;;7.60;100.00
64200;BME280;50516;52.272;5.136;2023-12-20T05:41:10;101400.66;;;7.64;100.00
64200;BME280;50516;52.272;5.136;2023-12-20T05:43:36;101395.78;;;7.54;100.00
64200;BME280;50516;52.272;5.136;2023-12-20T05:46:01;101388.66;;;7.53;100.00
64200;BME280;50516;52.272;5.136;2023-12-20T05:48:26;101388.41;;;7.55;100.00
64200;BME280;50516;52.272;5.136;2023-12-20T05:50:52;101394.81;;;7.48;100.00
64200;BME280;50516;52.272;5.136;2023-12-20T05:53:18;101397.31;;;7.50;100.00
64200;BME280;50516;52.272;5.136;2023-12-20T05:55:43;101398.00;;;7.57;100.00
64200;BME280;50516;52.272;5.136;2023-12-20T05:58:08;101388.66;;;7.53;100.00
64200;BME280;50516;52.272;5.136;2023-12-20T06:00:33;101399.34;;;7.55;100.00
64200;BME280;50516;52.272;5.136;2023-12-20T06:02:59;101391.03;;;7.49;100.00
64200;BME280;50516;52.272;5.136;2023-12-20T06:05:24;101392.31;;;7.47;100.00
64200;BME280;50516;52.272;5.136;2023-12-20T06:07:49;101401.34;;;7.59;100.00
64200;BME280;50516;52.272;5.136;2023-12-20T06:10:16;101394.94;;;7.65;100.00
64200;BME280;50516;52.272;5.136;2023-12-20T06:12:41;101393.63;;;7.68;100.00
64200;BME280;50516;52.272;5.136;2023-12-20T06:15:07;101393.63;;;7.68;100.00
64200;BME280;50516;52.272;5.136;2023-12-20T06:17:32;101389.72;;;7.64;100.00
64200;BME280;50516;52.272;5.136;2023-12-20T06:19:58;101379.94;;;7.68;100.00
64200;BME280;50516;52.272;5.136;2023-12-20T06:22:23;101379.22;;;7.73;100.00
64200;BME280;50516;52.272;5.136;2023-12-20T06:24:48;101389.81;;;7.69;100.00
64200;BME280;50516;52.272;5.136;2023-12-20T06:27:13;101389.47;;;7.65;100.00
64200;BME280;50516;52.272;5.136;2023-12-20T06:29:39;101391.47;;;7.70;100.00
64200;BME280;50516;52.272;5.136;2023-12-20T06:32:06;101396.59;;;7.66;100.00
64200;BME280;50516;52.272;5.136;2023-12-20T06:34:31;101382.00;;;7.61;100.00
64200;BME280;50516;52.272;5.136;2023-12-20T06:36:56;101393.16;;;7.59;100.00
64200;BME280;50516;52.272;5.136;2023-12-20T06:39:22;101396.59;;;7.66;100.00
64200;BME280;50516;52.272;5.136;2023-12-20T06:41:47;101390.03;;;7.79;100.00
64200;BME280;50516;52.272;5.136;2023-12-20T06:44:12;101391.66;;;7.92;100.00
64200;BME280;50516;52.272;5.136;2023-12-20T06:46:37;101381.72;;;7.74;100.00
64200;BME280;50516;52.272;5.136;2023-12-20T06:49:03;101388.25;;;7.73;100.00
64200;BME280;50516;52.272;5.136;2023-12-20T06:51:28;101388.88;;;7.75;100.00
64200;BME280;50516;52.272;5.136;2023-12-20T06:53:53;101383.41;;;7.75;100.00
64200;BME280;50516;52.272;5.136;2023-12-20T06:56:19;101386.59;;;7.72;100.00
64200;BME280;50516;52.272;5.136;2023-12-20T06:58:44;101385.28;;;7.86;100.00
64200;BME280;50516;52.272;5.136;2023-12-20T07:01:14;101396.22;;;7.86;100.00
64200;BME280;50516;52.272;5.136;2023-12-20T07:03:39;101373.16;;;7.82;100.00
64200;BME280;50516;52.272;5.136;2023-12-20T07:06:08;101373.00;;;7.89;100.00
64200;BME280;50516;52.272;5.136;2023-12-20T07:08:33;101373.88;;;7.90;100.00
64200;BME280;50516;52.272;5.136;2023-12-20T07:10:59;101372.56;;;7.80;100.00
64200;BME280;50516;52.272;5.136;2023-12-20T07:13:24;101378.41;;;7.72;100.00
64200;BME280;50516;52.272;5.136;2023-12-20T07:15:50;101369.13;;;7.85;100.00
64200;BME280;50516;52.272;5.136;2023-12-20T07:18:15;101364.72;;;7.84;100.00
64200;BME280;50516;52.272;5.136;2023-12-20T07:20:40;101354.50;;;7.79;100.00
64200;BME280;50516;52.272;5.136;2023-12-20T07:23:06;101362.59;;;7.74;100.00
64200;BME280;50516;52.272;5.136;2023-12-20T07:25:31;101354.38;;;7.74;100.00
64200;BME280;50516;52.272;5.136;2023-12-20T07:27:58;101344.50;;;7.73;100.00
64200;BME280;50516;52.272;5.136;2023-12-20T07:30:23;101350.09;;;7.78;100.00
64200;BME280;50516;52.272;5.136;2023-12-20T07:32:48;101338.44;;;7.83;100.00
64200;BME280;50516;52.272;5.136;2023-12-20T07:35:15;101353.28;;;7.87;100.00
64200;BME280;50516;52.272;5.136;2023-12-20T07:37:40;101356.59;;;7.89;100.00
64200;BME280;50516;52.272;5.136;2023-12-20T07:40:06;101356.47;;;7.96;100.00
64200;BME280;50516;52.272;5.136;2023-12-20T07:42:32;101360.91;;;7.85;100.00
64200;BME280;50516;52.272;5.136;2023-12-20T07:44:57;101374.34;;;7.86;100.00
64200;BME280;50516;52.272;5.136;2023-12-20T07:47:22;101373.16;;;7.82;100.00
64200;BME280;50516;52.272;5.136;2023-12-20T07:49:48;101373.47;;;7.98;100.00
64200;BME280;50516;52.272;5.136;2023-12-20T07:52:14;101373.50;;;7.86;100.00
64200;BME280;50516;52.272;5.136;2023-12-20T07:54:40;101374.22;;;7.81;100.00
64200;BME280;50516;52.272;5.136;2023-12-20T07:57:05;101377.19;;;7.92;100.00
64200;BME280;50516;52.272;5.136;2023-12-20T07:59:30;101378.72;;;7.88;100.00
64200;BME280;50516;52.272;5.136;2023-12-20T08:01:56;101385.16;;;7.93;100.00
64200;BME280;50516;52.272;5.136;2023-12-20T08:04:21;101395.75;;;7.90;100.00
64200;BME280;50516;52.272;5.136;2023-12-20T08:06:47;101400.34;;;7.89;100.00
64200;BME280;50516;52.272;5.136;2023-12-20T08:09:12;101400.34;;;7.89;100.00
64200;BME280;50516;52.272;5.136;2023-12-20T08:11:37;101395.47;;;8.03;100.00
64200;BME280;50516;52.272;5.136;2023-12-20T08:14:03;101390.72;;;7.98;100.00
64200;BME280;50516;52.272;5.136;2023-12-20T08:16:28;101389.28;;;7.96;100.00
64200;BME280;50516;52.272;5.136;2023-12-20T08:18:53;101398.19;;;8.03;100.00
64200;BME280;50516;52.272;5.136;2023-12-20T08:21:18;101385.34;;;8.03;100.00
64200;BME280;50516;52.272;5.136;2023-12-20T08:23:46;101384.53;;;8.03;100.00
64200;BME280;50516;52.272;5.136;2023-12-20T08:26:12;101390.00;;;8.03;100.00
64200;BME280;50516;52.272;5.136;2023-12-20T08:28:37;101379.25;;;8.13;100.00
64200;BME280;50516;52.272;5.136;2023-12-20T08:31:03;101380.91;;;8.14;100.00
64200;BME280;50516;52.272;5.136;2023-12-20T08:33:28;101376.38;;;8.20;100.00
64200;BME280;50516;52.272;5.136;2023-12-20T08:35:53;101374.59;;;8.14;100.00
64200;BME280;50516;52.272;5.136;2023-12-20T08:38:19;101387.69;;;8.12;100.00
64200;BME280;50516;52.272;5.136;2023-12-20T08:40:44;101383.66;;;8.14;100.00
64200;BME280;50516;52.272;5.136;2023-12-20T08:43:10;101388.03;;;8.15;100.00
64200;BME280;50516;52.272;5.136;2023-12-20T08:45:35;101392.94;;;8.13;100.00
64200;BME280;50516;52.272;5.136;2023-12-20T08:48:01;101387.69;;;8.12;100.00
64200;BME280;50516;52.272;5.136;2023-12-20T08:50:26;101377.59;;;8.12;100.00
64200;BME280;50516;52.272;5.136;2023-12-20T08:52:51;101388.88;;;8.16;100.00
64200;BME280;50516;52.272;5.136;2023-12-20T08:55:17;101384.13;;;8.11;100.00
64200;BME280;50516;52.272;5.136;2023-12-20T08:57:43;101384.72;;;8.13;100.00
64200;BME280;50516;52.272;5.136;2023-12-20T09:00:09;101387.22;;;8.15;100.00
64200;BME280;50516;52.272;5.136;2023-12-20T09:02:34;101376.03;;;8.16;100.00
64200;BME280;50516;52.272;5.136;2023-12-20T09:05:01;101386.50;;;8.19;100.00
64200;BME280;50516;52.272;5.136;2023-12-20T09:07:28;101376.72;;;8.23;100.00
64200;BME280;50516;52.272;5.136;2023-12-20T09:09:56;101386.09;;;8.28;100.00
64200;BME280;50516;52.272;5.136;2023-12-20T09:12:21;101384.78;;;8.30;100.00
64200;BME280;50516;52.272;5.136;2023-12-20T09:14:48;101384.66;;;8.37;100.00
64200;BME280;50516;52.272;5.136;2023-12-20T09:17:13;101377.25;;;8.37;99.50
64200;BME280;50516;52.272;5.136;2023-12-20T09:19:39;101372.28;;;8.34;99.68
64200;BME280;50516;52.272;5.136;2023-12-20T09:22:05;101368.00;;;8.38;99.46
64200;BME280;50516;52.272;5.136;2023-12-20T09:24:30;101379.38;;;8.47;99.32
64200;BME280;50516;52.272;5.136;2023-12-20T09:26:56;101374.72;;;8.48;98.73
64200;BME280;50516;52.272;5.136;2023-12-20T09:29:21;101368.94;;;8.44;99.23
64200;BME280;50516;52.272;5.136;2023-12-20T09:31:46;101375.50;;;8.43;98.92
64200;BME280;50516;52.272;5.136;2023-12-20T09:34:14;101367.38;;;8.48;99.05
64200;BME280;50516;52.272;5.136;2023-12-20T09:36:40;101375.69;;;8.53;98.33
64200;BME280;50516;52.272;5.136;2023-12-20T09:39:12;101367.47;;;8.53;98.84
64200;BME280;50516;52.272;5.136;2023-12-20T09:41:42;101371.09;;;8.59;98.52
64200;BME280;50516;52.272;5.136;2023-12-20T09:44:08;101386.91;;;8.69;98.73
64200;BME280;50516;52.272;5.136;2023-12-20T09:46:42;101375.19;;;8.73;97.89
64200;BME280;50516;52.272;5.136;2023-12-20T09:49:08;101373.63;;;8.77;97.61
64200;BME280;50516;52.272;5.136;2023-12-20T09:51:34;101385.56;;;8.71;97.45
64200;BME280;50516;52.272;5.136;2023-12-20T09:54:01;101392.56;;;8.79;97.78
64200;BME280;50516;52.272;5.136;2023-12-20T09:56:28;101391.53;;;8.68;98.54
64200;BME280;50516;52.272;5.136;2023-12-20T09:58:54;101397.00;;;8.68;97.08
64200;BME280;50516;52.272;5.136;2023-12-20T10:01:19;101383.66;;;8.72;97.21
64200;BME280;50516;52.272;5.136;2023-12-20T10:03:46;101388.41;;;8.76;97.11
64200;BME280;50516;52.272;5.136;2023-12-20T10:06:12;101389.56;;;8.81;96.13
64200;BME280;50516;52.272;5.136;2023-12-20T10:08:38;101396.38;;;8.78;96.68
64200;BME280;50516;52.272;5.136;2023-12-20T10:11:04;101393.53;;;8.73;96.21
64200;BME280;50516;52.272;5.136;2023-12-20T10:13:30;101392.22;;;8.75;97.63
64200;BME280;50516;52.272;5.136;2023-12-20T10:15:56;101401.59;;;8.80;96.52
64200;BME280;50516;52.272;5.136;2023-12-20T10:18:22;101387.94;;;8.97;95.98
64200;BME280;50516;52.272;5.136;2023-12-20T10:20:47;101397.91;;;9.03;95.50
64200;BME280;50516;52.272;5.136;2023-12-20T10:23:15;101377.97;;;9.07;95.70
64200;BME280;50516;52.272;5.136;2023-12-20T10:25:40;101382.63;;;9.07;95.20
64200;BME280;50516;52.272;5.136;2023-12-20T10:28:13;101388.09;;;9.24;94.83
64200;BME280;50516;52.272;5.136;2023-12-20T10:30:40;101381.94;;;9.34;94.09
64200;BME280;50516;52.272;5.136;2023-12-20T10:33:06;101381.59;;;9.30;93.28
64200;BME280;50516;52.272;5.136;2023-12-20T10:35:33;101387.31;;;9.28;94.02
64200;BME280;50516;52.272;5.136;2023-12-20T10:38:04;101385.00;;;9.20;93.87
64200;BME280;50516;52.272;5.136;2023-12-20T10:40:30;101384.75;;;9.22;93.60
64200;BME280;50516;52.272;5.136;2023-12-20T10:42:55;101371.81;;;9.17;94.31
64200;BME280;50516;52.272;5.136;2023-12-20T10:45:22;101372.41;;;9.19;94.03
64200;BME280;50516;52.272;5.136;2023-12-20T10:47:50;101370.31;;;9.43;92.60
64200;BME280;50516;52.272;5.136;2023-12-20T10:50:15;101367.44;;;9.55;91.08
64200;BME280;50516;52.272;5.136;2023-12-20T10:52:41;101362.19;;;9.71;91.12
64200;BME280;50516;52.272;5.136;2023-12-20T10:55:07;101357.97;;;9.85;88.29
64200;BME280;50516;52.272;5.136;2023-12-20T10:57:35;101358.13;;;9.95;87.91
64200;BME280;50516;52.272;5.136;2023-12-20T11:00:02;101352.06;;;9.93;87.53
64200;BME280;50516;52.272;5.136;2023-12-20T11:02:32;101354.72;;;9.88;87.13
64200;BME280;50516;52.272;5.136;2023-12-20T11:05:06;101352.47;;;10.07;87.45
64200;BME280;50516;52.272;5.136;2023-12-20T11:07:37;101353.06;;;9.87;86.30
64200;BME280;50516;52.272;5.136;2023-12-20T11:10:36;101351.22;;;9.71;86.50
64200;BME280;50516;52.272;5.136;2023-12-20T11:13:10;101348.50;;;9.54;87.51
64200;BME280;50516;52.272;5.136;2023-12-20T11:15:37;101348.94;;;9.45;89.26
64200;BME280;50516;52.272;5.136;2023-12-20T11:18:04;101343.53;;;9.50;89.35
64200;BME280;50516;52.272;5.136;2023-12-20T11:20:40;101353.31;;;9.63;89.38
64200;BME280;50516;52.272;5.136;2023-12-20T11:23:07;101359.28;;;9.60;88.75
64200;BME280;50516;52.272;5.136;2023-12-20T11:25:52;101345.09;;;9.63;88.36
64200;BME280;50516;52.272;5.136;2023-12-20T11:28:21;101346.16;;;9.62;88.82
64200;BME280;50516;52.272;5.136;2023-12-20T11:30:48;101340.53;;;9.52;88.59
64200;BME280;50516;52.272;5.136;2023-12-20T11:33:15;101344.69;;;9.55;89.18
64200;BME280;50516;52.272;5.136;2023-12-20T11:35:41;101338.03;;;9.67;90.11
64200;BME280;50516;52.272;5.136;2023-12-20T11:38:10;101340.34;;;9.59;89.22
64200;BME280;50516;52.272;5.136;2023-12-20T11:40:36;101334.31;;;9.57;89.55
64200;BME280;50516;52.272;5.136;2023-12-20T11:43:02;101335.72;;;9.59;89.68
64200;BME280;50516;52.272;5.136;2023-12-20T11:45:28;101323.47;;;9.45;90.36
64200;BME280;50516;52.272;5.136;2023-12-20T11:47:53;101323.31;;;9.35;91.36
64200;BME280;50516;52.272;5.136;2023-12-20T11:50:20;101316.81;;;9.41;91.99
64200;BME280;50516;52.272;5.136;2023-12-20T11:52:47;101327.09;;;9.50;91.55
64200;BME280;50516;52.272;5.136;2023-12-20T11:55:12;101309.25;;;9.48;91.45
64200;BME280;50516;52.272;5.136;2023-12-20T11:57:38;101314.75;;;9.48;92.18
64200;BME280;50516;52.272;5.136;2023-12-20T12:00:04;101319.13;;;9.49;92.52
64200;BME280;50516;52.272;5.136;2023-12-20T12:02:30;101310.84;;;9.44;92.58
64200;BME280;50516;52.272;5.136;2023-12-20T12:04:55;101322.44;;;9.51;92.42
64200;BME280;50516;52.272;5.136;2023-12-20T12:07:21;101309.16;;;9.43;92.75
64200;BME280;50516;52.272;5.136;2023-12-20T12:09:47;101314.13;;;9.46;92.12
64200;BME280;50516;52.272;5.136;2023-12-20T12:12:13;101318.03;;;9.50;91.60
64200;BME280;50516;52.272;5.136;2023-12-20T12:14:38;101320.78;;;9.50;91.72
64200;BME280;50516;52.272;5.136;2023-12-20T12:17:10;101308.31;;;9.59;91.63
64200;BME280;50516;52.272;5.136;2023-12-20T12:19:35;101312.84;;;9.71;91.30
64200;BME280;50516;52.272;5.136;2023-12-20T12:24:36;101293.94;;;9.52;92.18
64200;BME280;50516;52.272;5.136;2023-12-20T12:27:02;101295.09;;;9.56;92.37
64200;BME280;50516;52.272;5.136;2023-12-20T12:29:28;101287.00;;;9.66;92.45
64200;BME280;50516;52.272;5.136;2023-12-20T12:31:54;101276.41;;;9.75;92.44
64200;BME280;50516;52.272;5.136;2023-12-20T12:34:20;101267.34;;;9.75;92.50
64200;BME280;50516;52.272;5.136;2023-12-20T12:36:45;101278.38;;;9.80;92.61
64200;BME280;50516;52.272;5.136;2023-12-20T12:39:15;101264.94;;;9.56;93.06
64200;BME280;50516;52.272;5.136;2023-12-20T12:41:43;101273.22;;;9.39;93.26
64200;BME280;50516;52.272;5.136;2023-12-20T12:44:08;101282.78;;;9.37;93.74
64200;BME280;50516;52.272;5.136;2023-12-20T12:46:33;101270.97;;;9.36;94.31
64200;BME280;50516;52.272;5.136;2023-12-20T12:48:59;101274.44;;;9.48;94.33